createdAt,value
2018-07-17T00:01:22.000Z,100.00
2018-07-17T00:03:57.230Z,100.00
2018-07-17T00:06:30.064Z,100.00
2018-07-17T00:09:03.048Z,100.00
2018-07-17T00:11:38.864Z,100.00
2018-07-17T00:14:25.239Z,100.00
2018-07-17T00:17:08.665Z,100.00
2018-07-17T00:19:44.366Z,100.00
2018-07-17T00:22:21.289Z,100.00
2018-07-17T00:25:04.640Z,100.00
2018-07-17T00:27:38.893Z,100.00
2018-07-17T00:30:48.610Z,100.00
2018-07-17T00:33:21.733Z,100.00
2018-07-17T00:35:54.487Z,100.00
2018-07-17T00:38:40.072Z,100.00
2018-07-17T00:41:40.473Z,100.00
2018-07-17T00:44:18.375Z,100.00
2018-07-17T00:46:57.651Z,100.00
2018-07-17T00:49:36.165Z,100.00
2018-07-17T00:52:19.076Z,100.00
2018-07-17T00:54:55.667Z,100.00
2018-07-17T00:57:29.627Z,100.00
2018-07-17T01:00:20.664Z,100.00
2018-07-17T01:03:04.108Z,100.00
2018-07-17T01:05:46.245Z,100.00
2018-07-17T01:08:26.812Z,100.00
2018-07-17T01:11:29.348Z,100.00
2018-07-17T01:14:46.549Z,100.00
2018-07-17T01:17:37.747Z,100.00
2018-07-17T01:20:18.373Z,100.00
2018-07-17T01:23:13.415Z,100.00
2018-07-17T01:25:45.603Z,100.00
2018-07-17T01:28:20.222Z,100.00
2018-07-17T01:30:58.765Z,100.00
2018-07-17T01:33:30.713Z,100.00
2018-07-17T01:36:21.020Z,100.00
2018-07-17T01:39:00.611Z,100.00
2018-07-17T01:41:33.108Z,100.00
2018-07-17T01:44:06.567Z,100.00
2018-07-17T01:47:03.571Z,100.00
2018-07-17T01:49:44.140Z,100.00
2018-07-17T01:52:18.335Z,100.00
2018-07-17T01:54:50.082Z,100.00
2018-07-17T01:57:22.139Z,100.00
2018-07-17T02:00:12.379Z,100.00
2018-07-17T02:02:45.309Z,100.00
2018-07-17T02:05:20.397Z,100.00
2018-07-17T02:08:04.756Z,100.00
2018-07-17T02:10:44.808Z,100.00
2018-07-17T02:13:19.814Z,100.00
2018-07-17T02:15:53.728Z,100.00
2018-07-17T02:18:25.698Z,100.00
2018-07-17T02:21:04.018Z,100.00
2018-07-17T02:23:47.280Z,100.00
2018-07-17T02:26:19.952Z,100.00
2018-07-17T02:29:09.422Z,100.00
2018-07-17T02:31:42.496Z,100.00
2018-07-17T02:34:22.850Z,100.00
2018-07-17T02:37:01.811Z,100.00
2018-07-17T02:39:49.767Z,100.00
2018-07-17T02:42:23.224Z,100.00
2018-07-17T02:45:12.872Z,100.00
2018-07-17T02:47:57.546Z,100.00
2018-07-17T02:50:44.782Z,100.00
2018-07-17T02:53:22.100Z,100.00
2018-07-17T02:55:56.497Z,100.00
2018-07-17T02:58:42.582Z,100.00
2018-07-17T03:01:19.816Z,100.00
2018-07-17T03:03:54.374Z,100.00
2018-07-17T03:06:37.232Z,100.00
2018-07-17T03:28:14.926Z,100.00
2018-07-17T03:30:47.119Z,100.00
2018-07-17T03:33:19.810Z,100.00
2018-07-17T03:35:51.673Z,100.00
2018-07-17T03:38:24.113Z,100.00
2018-07-17T03:40:56.732Z,100.00
2018-07-17T03:43:30.287Z,100.00
2018-07-17T03:46:04.171Z,100.00
2018-07-17T03:48:35.875Z,100.00
2018-07-17T03:51:07.946Z,100.00
2018-07-17T03:53:39.833Z,100.00
2018-07-17T03:56:11.508Z,100.00
2018-07-17T03:58:43.323Z,100.00
2018-07-17T04:01:15.182Z,100.00
2018-07-17T04:03:47.817Z,100.00
2018-07-17T04:06:19.755Z,100.00
2018-07-17T04:08:51.566Z,100.00
2018-07-17T04:11:23.438Z,100.00
2018-07-17T04:13:54.631Z,100.00
2018-07-17T04:16:26.327Z,100.00
2018-07-17T04:18:58.125Z,100.00
2018-07-17T04:21:29.970Z,100.00
2018-07-17T04:24:01.825Z,100.00
2018-07-17T04:26:33.626Z,100.00
2018-07-17T04:29:05.706Z,100.00
2018-07-17T04:31:37.110Z,100.00
2018-07-17T04:34:08.363Z,100.00
2018-07-17T04:36:39.527Z,100.00
2018-07-17T04:39:13.197Z,100.00
2018-07-17T04:41:44.318Z,100.00
2018-07-17T04:44:16.231Z,100.00
2018-07-17T04:46:51.600Z,100.00
2018-07-17T04:49:23.668Z,100.00
2018-07-17T04:51:59.201Z,100.00
2018-07-17T04:54:31.910Z,100.00
2018-07-17T04:57:03.791Z,100.00
2018-07-17T04:59:38.819Z,100.00
2018-07-17T05:02:10.566Z,100.00
2018-07-17T05:04:41.871Z,100.00
2018-07-17T05:07:13.569Z,100.00
2018-07-17T05:09:45.581Z,100.00
2018-07-17T05:12:18.692Z,100.00
2018-07-17T05:14:50.393Z,100.00
2018-07-17T05:17:22.167Z,98.46
2018-07-17T05:19:54.906Z,97.85
2018-07-17T05:22:55.653Z,96.52
2018-07-17T05:26:11.190Z,94.82
2018-07-17T05:29:12.051Z,93.24
2018-07-17T05:32:07.050Z,92.80
2018-07-17T05:34:42.991Z,94.44
2018-07-17T05:37:14.806Z,95.36
2018-07-17T05:39:47.152Z,95.40
2018-07-17T05:42:19.378Z,98.21
2018-07-17T05:44:50.621Z,97.17
2018-07-17T05:47:22.360Z,96.36
2018-07-17T05:49:54.087Z,95.75
2018-07-17T05:52:25.936Z,97.45
2018-07-17T05:54:57.739Z,97.77
2018-07-17T05:57:29.475Z,95.68
2018-07-17T06:00:01.315Z,94.26
2018-07-17T06:02:33.170Z,91.11
2018-07-17T06:05:05.030Z,89.91
2018-07-17T06:07:37.152Z,89.11
2018-07-17T06:10:08.406Z,88.63
2018-07-17T06:12:40.003Z,87.39
2018-07-17T06:15:14.754Z,83.22
2018-07-17T06:17:47.759Z,84.05
2018-07-17T06:20:21.707Z,82.46
2018-07-17T06:22:53.450Z,80.50
2018-07-17T06:25:25.347Z,78.71
2018-07-17T06:27:57.429Z,78.15
2018-07-17T06:30:29.295Z,75.64
2018-07-17T06:33:01.146Z,75.00
2018-07-17T06:35:32.877Z,72.35
2018-07-17T06:38:04.726Z,72.17
2018-07-17T06:40:35.960Z,72.19
2018-07-17T06:43:08.667Z,76.18
2018-07-17T06:45:39.870Z,72.33
2018-07-17T06:48:11.465Z,71.90
2018-07-17T06:50:46.918Z,70.01
2018-07-17T06:53:19.414Z,64.58
2018-07-17T06:55:54.201Z,65.96
2018-07-17T06:58:39.944Z,67.62
2018-07-17T07:01:11.594Z,69.34
2018-07-17T07:03:45.471Z,69.42
2018-07-17T07:06:17.338Z,68.73
2018-07-17T07:08:49.047Z,68.55
2018-07-17T07:11:21.800Z,68.32
2018-07-17T07:13:53.714Z,63.32
2018-07-17T07:16:25.518Z,61.70
2018-07-17T07:18:57.490Z,64.65
2018-07-17T07:21:32.638Z,62.04
2018-07-17T07:24:04.674Z,65.78
2018-07-17T07:26:36.601Z,65.75
2018-07-17T07:29:09.862Z,65.84
2018-07-17T07:31:41.710Z,67.96
2018-07-17T07:34:14.452Z,66.04
2018-07-17T07:36:46.000Z,65.64
2018-07-17T07:39:18.304Z,61.98
2018-07-17T07:41:50.598Z,66.09
2018-07-17T07:44:22.236Z,60.32
2018-07-17T07:46:53.878Z,58.96
2018-07-17T07:49:25.967Z,57.74
2018-07-17T07:51:57.782Z,58.60
2018-07-17T07:54:29.510Z,58.11
2018-07-17T07:57:03.443Z,56.91
2018-07-17T07:59:35.323Z,56.28
2018-07-17T08:02:07.115Z,57.99
2018-07-17T08:04:39.234Z,58.54
2018-07-17T08:07:11.134Z,56.88
2018-07-17T08:09:43.061Z,57.62
2018-07-17T08:12:14.811Z,55.84
2018-07-17T08:14:46.753Z,57.36
2018-07-17T08:17:18.817Z,56.22
2018-07-17T08:19:50.564Z,59.27
2018-07-17T08:22:22.425Z,56.84
2018-07-17T08:24:54.195Z,55.68
2018-07-17T08:27:26.101Z,55.68
2018-07-17T08:29:57.354Z,52.28
2018-07-17T08:32:29.149Z,52.06
2018-07-17T08:35:01.962Z,52.36
2018-07-17T08:37:33.912Z,51.11
2018-07-17T08:40:05.921Z,48.13
2018-07-17T08:42:38.625Z,47.11
2018-07-17T08:45:10.494Z,48.62
2018-07-17T08:47:43.684Z,49.43
2018-07-17T08:50:21.119Z,49.70
2018-07-17T08:52:53.978Z,48.38
2018-07-17T08:55:25.843Z,50.17
2018-07-17T08:57:57.623Z,50.64
2018-07-17T09:00:29.533Z,51.58
2018-07-17T09:03:01.660Z,49.87
2018-07-17T09:05:35.892Z,47.37
2018-07-17T09:08:17.697Z,47.10
2018-07-17T09:10:48.851Z,46.66
2018-07-17T09:13:20.462Z,46.81
2018-07-17T09:15:57.546Z,49.16
2018-07-17T09:18:30.636Z,49.70
2018-07-17T09:21:02.556Z,48.00
2018-07-17T09:23:34.799Z,46.31
2018-07-17T09:26:06.165Z,45.79
2018-07-17T09:28:37.656Z,47.63
2018-07-17T09:31:09.482Z,46.03
2018-07-17T09:33:41.198Z,45.09
2018-07-17T09:36:13.069Z,44.07
2018-07-17T09:38:44.264Z,44.81
2018-07-17T09:41:31.994Z,42.17
2018-07-17T09:44:04.459Z,44.00
2018-07-17T09:46:35.620Z,44.62
2018-07-17T09:49:07.555Z,46.25
2018-07-17T09:51:40.076Z,48.24
2018-07-17T09:54:12.900Z,47.35
2018-07-17T09:56:47.832Z,45.83
2018-07-17T09:59:19.944Z,45.23
2018-07-17T10:01:56.537Z,45.05
2018-07-17T10:04:28.351Z,47.73
2018-07-17T10:07:00.250Z,51.54
2018-07-17T10:09:32.236Z,50.14
2018-07-17T10:12:03.977Z,45.17
2018-07-17T10:14:36.366Z,42.50
2018-07-17T10:17:08.271Z,42.78
2018-07-17T10:19:40.135Z,44.28
2018-07-17T10:22:11.890Z,42.62
2018-07-17T10:24:43.782Z,43.73
2018-07-17T10:27:16.323Z,43.89
2018-07-17T10:29:48.081Z,42.38
2018-07-17T10:32:20.001Z,44.97
2018-07-17T10:34:51.659Z,43.03
2018-07-17T10:37:23.730Z,41.87
2018-07-17T10:39:55.390Z,40.45
2018-07-17T10:42:27.255Z,43.91
2018-07-17T10:44:59.033Z,44.76
2018-07-17T10:47:30.853Z,42.57
2018-07-17T10:50:02.944Z,39.39
2018-07-17T10:57:02.232Z,40.49
2018-07-17T11:00:13.211Z,37.49
2018-07-17T11:03:03.576Z,39.29
2018-07-17T11:05:35.747Z,38.00
2018-07-17T11:08:07.638Z,37.22
2018-07-17T11:10:39.370Z,38.01
2018-07-17T11:13:11.218Z,38.65
2018-07-17T11:15:42.604Z,37.59
2018-07-17T11:18:14.176Z,40.82
2018-07-17T11:20:46.046Z,41.14
2018-07-17T11:23:18.419Z,38.82
2018-07-17T11:25:50.318Z,37.37
2018-07-17T11:28:22.091Z,37.94
2018-07-17T11:30:53.867Z,36.21
2018-07-17T11:33:25.699Z,35.53
2018-07-17T11:35:56.843Z,35.13
2018-07-17T11:38:28.561Z,34.71
2018-07-17T11:41:00.188Z,36.55
2018-07-17T11:43:31.892Z,37.03
2018-07-17T11:46:03.771Z,36.41
2018-07-17T11:48:35.120Z,35.96
2018-07-17T11:51:06.822Z,36.24
2018-07-17T11:53:38.640Z,37.44
2018-07-17T11:56:10.561Z,35.83
2018-07-17T11:58:42.446Z,35.80
2018-07-17T12:01:14.568Z,37.27
2018-07-17T12:04:11.999Z,36.55
2018-07-17T12:08:07.329Z,35.79
2018-07-17T12:14:27.049Z,39.25
2018-07-17T12:16:58.810Z,37.68
2018-07-17T12:19:33.902Z,38.92
2018-07-17T12:22:11.628Z,37.82
2018-07-17T12:24:43.454Z,40.77
2018-07-17T12:27:17.338Z,39.93
2018-07-17T12:29:49.220Z,40.07
2018-07-17T12:32:21.390Z,40.57
2018-07-17T12:34:52.690Z,40.80
2018-07-17T12:37:24.497Z,43.76
2018-07-17T12:39:57.423Z,41.98
2018-07-17T12:42:29.133Z,38.17
2018-07-17T12:45:01.005Z,37.54
2018-07-17T12:47:33.622Z,37.84
2018-07-17T12:50:05.860Z,40.13
2018-07-17T12:52:37.930Z,37.20
2018-07-17T12:55:15.145Z,36.71
2018-07-17T12:57:48.209Z,36.91
2018-07-17T13:00:24.252Z,38.05
2018-07-17T13:02:55.742Z,39.26
2018-07-17T13:05:27.376Z,39.01
2018-07-17T13:07:59.028Z,37.32
2018-07-17T13:10:30.548Z,36.80
2018-07-17T13:13:02.312Z,38.69
2018-07-17T13:15:33.902Z,40.73
2018-07-17T13:18:05.515Z,39.96
2018-07-17T13:20:37.134Z,39.96
2018-07-17T13:23:08.335Z,39.84
2018-07-17T13:25:39.863Z,39.29
2018-07-17T13:28:11.529Z,37.88
2018-07-17T13:30:43.223Z,39.89
2018-07-17T13:33:14.531Z,39.92
2018-07-17T13:35:46.086Z,40.18
2018-07-17T13:38:18.284Z,40.99
2018-07-17T13:40:50.121Z,40.68
2018-07-17T13:43:21.797Z,38.19
2018-07-17T13:45:53.547Z,38.85
2018-07-17T13:48:25.107Z,38.00
2018-07-17T13:50:57.135Z,38.33
2018-07-17T13:53:28.905Z,37.21
2018-07-17T13:56:00.708Z,37.79
2018-07-17T13:58:32.422Z,40.23
2018-07-17T14:01:04.137Z,38.90
2018-07-17T14:03:35.267Z,40.26
2018-07-17T14:06:07.108Z,40.90
2018-07-17T14:08:38.960Z,42.40
2018-07-17T14:11:10.835Z,40.20
2018-07-17T14:13:42.596Z,42.47
2018-07-17T14:16:14.277Z,45.12
2018-07-17T14:18:45.864Z,43.53
2018-07-17T14:21:18.836Z,43.52
2018-07-17T14:23:51.249Z,42.99
2018-07-17T14:26:23.462Z,43.94
2018-07-17T14:28:55.100Z,45.33
2018-07-17T14:31:26.717Z,43.03
2018-07-17T14:33:58.393Z,42.73
2018-07-17T14:36:30.172Z,42.63
2018-07-17T14:39:01.809Z,40.76
2018-07-17T14:41:33.497Z,42.40
2018-07-17T14:44:05.196Z,41.72
2018-07-17T14:46:36.409Z,43.43
2018-07-17T14:49:08.013Z,43.33
2018-07-17T14:51:39.717Z,44.22
2018-07-17T14:54:11.320Z,43.21
2018-07-17T14:56:43.034Z,44.04
2018-07-17T14:59:14.650Z,45.83
2018-07-17T15:01:46.785Z,44.08
2018-07-17T15:04:19.046Z,44.26
2018-07-17T15:06:50.865Z,42.74
2018-07-17T15:09:22.516Z,44.04
2018-07-17T15:11:54.227Z,42.78
2018-07-17T15:14:25.860Z,43.07
2018-07-17T15:16:57.618Z,44.02
2018-07-17T15:19:28.873Z,43.99
2018-07-17T15:22:00.431Z,43.51
2018-07-17T15:24:31.723Z,42.44
2018-07-17T15:27:03.356Z,42.71
2018-07-17T15:29:35.048Z,42.54
2018-07-17T15:34:43.128Z,43.48
2018-07-17T15:37:14.802Z,43.57
2018-07-17T15:39:46.565Z,44.08
2018-07-17T15:42:18.885Z,43.65
2018-07-17T15:44:50.476Z,43.38
2018-07-17T15:47:21.603Z,42.56
2018-07-17T15:49:53.489Z,41.89
2018-07-17T15:52:25.649Z,41.02
2018-07-17T15:54:58.028Z,42.21
2018-07-17T15:57:30.632Z,41.25
2018-07-17T16:00:02.392Z,42.72
2018-07-17T16:02:34.295Z,42.07
2018-07-17T16:05:05.983Z,42.65
2018-07-17T16:07:38.316Z,42.13
2018-07-17T16:10:10.007Z,43.13
2018-07-17T16:12:41.911Z,42.69
2018-07-17T16:15:16.651Z,39.76
2018-07-17T16:17:48.494Z,39.42
2018-07-17T16:20:22.433Z,40.41
2018-07-17T16:22:54.431Z,41.57
2018-07-17T16:25:26.340Z,41.45
2018-07-17T16:27:58.584Z,40.69
2018-07-17T16:30:30.224Z,40.09
2018-07-17T16:33:02.212Z,39.61
2018-07-17T16:35:33.602Z,39.44
2018-07-17T16:38:05.297Z,41.05
2018-07-17T16:40:37.067Z,39.85
2018-07-17T16:43:08.753Z,41.54
2018-07-17T16:45:40.568Z,41.21
2018-07-17T16:48:12.266Z,41.61
2018-07-17T16:50:44.242Z,41.18
2018-07-17T16:53:16.085Z,41.30
2018-07-17T16:55:48.231Z,41.66
2018-07-17T16:58:20.817Z,41.26
2018-07-17T17:00:52.786Z,40.01
2018-07-17T17:03:25.329Z,41.14
2018-07-17T17:05:57.331Z,40.26
2018-07-17T17:08:29.370Z,40.52
2018-07-17T17:11:03.764Z,40.50
2018-07-17T17:13:35.700Z,39.86
2018-07-17T17:16:07.776Z,40.31
2018-07-17T17:18:39.762Z,40.32
2018-07-17T17:21:11.277Z,41.00
2018-07-17T17:23:43.110Z,41.08
2018-07-17T17:26:14.955Z,40.94
2018-07-17T17:28:46.830Z,41.75
2018-07-17T17:31:19.299Z,41.47
2018-07-17T17:33:51.208Z,41.85
2018-07-17T17:36:26.265Z,41.44
2018-07-17T17:38:58.035Z,42.12
2018-07-17T17:41:30.016Z,41.29
2018-07-17T17:44:02.954Z,41.99
2018-07-17T17:46:34.597Z,42.67
2018-07-17T17:49:06.585Z,43.41
2018-07-17T17:51:39.373Z,43.90
2018-07-17T17:54:11.333Z,43.47
2018-07-17T17:56:43.117Z,44.82
2018-07-17T17:59:20.064Z,44.87
2018-07-17T18:01:55.491Z,44.82
2018-07-17T18:04:27.183Z,46.31
2018-07-17T18:06:59.787Z,46.16
2018-07-17T18:09:31.600Z,47.43
2018-07-17T18:12:04.384Z,47.76
2018-07-17T18:14:36.281Z,47.54
2018-07-17T18:17:09.145Z,47.51
2018-07-17T18:19:43.117Z,48.15
2018-07-17T18:22:14.964Z,48.63
2018-07-17T18:24:46.881Z,48.71
2018-07-17T18:27:19.044Z,48.79
2018-07-17T18:29:50.805Z,49.48
2018-07-17T18:32:24.008Z,49.72
2018-07-17T18:34:55.913Z,48.95
2018-07-17T18:37:27.888Z,49.72
2018-07-17T18:39:59.669Z,50.33
2018-07-17T18:42:33.398Z,50.26
2018-07-17T18:45:05.729Z,50.41
2018-07-17T18:47:37.572Z,51.29
2018-07-17T18:50:12.859Z,51.25
2018-07-17T18:52:42.305Z,51.61
2018-07-17T18:55:15.452Z,52.31
2018-07-17T18:57:47.997Z,51.70
2018-07-17T19:00:20.487Z,51.44
2018-07-17T19:02:52.104Z,51.52
2018-07-17T19:05:24.472Z,51.22
2018-07-17T19:07:55.646Z,51.14
2018-07-17T19:10:28.506Z,51.29
2018-07-17T19:12:59.591Z,50.59
2018-07-17T19:15:31.161Z,52.02
2018-07-17T19:18:02.820Z,51.78
2018-07-17T19:20:34.640Z,51.54
2018-07-17T19:23:06.424Z,51.09
2018-07-17T19:25:38.205Z,52.45
2018-07-17T19:28:09.973Z,54.49
2018-07-17T19:30:41.697Z,53.93
2018-07-17T19:33:13.849Z,54.87
2018-07-17T19:35:45.666Z,54.72
2018-07-17T19:38:17.794Z,54.64
2018-07-17T19:40:54.901Z,54.15
2018-07-17T19:43:26.467Z,54.25
2018-07-17T19:45:58.669Z,55.27
2018-07-17T19:48:30.469Z,54.74
2018-07-17T19:51:02.339Z,55.39
2018-07-17T19:53:34.223Z,57.08
2018-07-17T19:56:05.798Z,56.07
2018-07-17T19:58:37.375Z,55.97
2018-07-17T20:01:09.790Z,55.64
2018-07-17T20:03:41.715Z,56.05
2018-07-17T20:06:13.603Z,64.58
2018-07-17T20:08:45.236Z,65.49
2018-07-17T20:11:19.889Z,65.37
2018-07-17T20:13:51.904Z,62.70
2018-07-17T20:16:24.284Z,62.38
2018-07-17T20:18:56.220Z,65.82
2018-07-17T20:21:28.419Z,67.79
2018-07-17T20:23:59.488Z,68.70
2018-07-17T20:26:31.598Z,69.61
2018-07-17T20:29:03.709Z,67.69
2018-07-17T20:31:36.185Z,69.47
2018-07-17T20:34:52.813Z,69.81
2018-07-17T20:37:28.919Z,70.66
2018-07-17T20:40:00.245Z,71.45
2018-07-17T20:42:33.913Z,71.31
2018-07-17T20:45:06.028Z,72.81
2018-07-17T20:47:37.687Z,72.36
2018-07-17T20:50:10.208Z,71.24
2018-07-17T20:52:42.803Z,69.93
2018-07-17T20:55:18.414Z,69.39
2018-07-17T20:57:50.200Z,68.84
2018-07-17T21:00:23.823Z,68.97
2018-07-17T21:02:55.569Z,68.11
2018-07-17T21:05:27.380Z,69.37
2018-07-17T21:07:58.669Z,68.37
2018-07-17T21:10:35.677Z,68.47
2018-07-17T21:13:07.457Z,68.08
2018-07-17T21:15:39.107Z,67.46
2018-07-17T21:18:10.883Z,66.87
2018-07-17T21:20:42.086Z,67.16
2018-07-17T21:23:13.692Z,66.19
2018-07-17T21:26:01.460Z,64.86
2018-07-17T21:28:33.920Z,65.68
2018-07-17T21:31:05.701Z,69.03
2018-07-17T21:33:37.610Z,69.93
2018-07-17T21:36:10.387Z,72.46
2018-07-17T21:38:41.793Z,74.59
2018-07-17T21:41:14.127Z,75.25
2018-07-17T21:43:45.857Z,73.77
2018-07-17T21:46:18.607Z,74.07
2018-07-17T21:48:50.783Z,76.64
2018-07-17T21:51:22.660Z,75.34
2018-07-17T21:53:54.410Z,73.67
2018-07-17T21:56:26.138Z,72.42
2018-07-17T21:58:58.150Z,73.30
2018-07-17T22:01:30.008Z,73.49
2018-07-17T22:04:22.603Z,73.69
2018-07-17T22:06:54.922Z,72.99
2018-07-17T22:09:26.785Z,72.61
2018-07-17T22:11:58.803Z,73.16
2018-07-17T22:14:30.677Z,73.72
2018-07-17T22:17:03.029Z,74.41
2018-07-17T22:19:35.481Z,74.12
2018-07-17T22:22:07.286Z,75.60
2018-07-17T22:24:39.103Z,74.93
2018-07-17T22:27:10.253Z,76.25
2018-07-17T22:29:41.896Z,76.62
2018-07-17T22:32:15.450Z,76.85
2018-07-17T22:34:48.103Z,76.86
2018-07-17T22:37:20.788Z,76.81
2018-07-17T22:39:52.541Z,76.99
2018-07-17T22:42:24.609Z,75.83
2018-07-17T22:44:56.485Z,76.38
2018-07-17T22:47:30.016Z,76.42
2018-07-17T22:50:04.787Z,75.64
2018-07-17T22:52:36.352Z,75.08
2018-07-17T22:55:08.242Z,73.64
2018-07-17T22:57:40.685Z,73.97
2018-07-17T23:00:12.653Z,73.93
2018-07-17T23:02:44.319Z,75.43
2018-07-17T23:05:21.392Z,75.39
2018-07-17T23:07:53.224Z,76.79
2018-07-17T23:10:25.202Z,76.12
2018-07-17T23:12:56.458Z,77.63
2018-07-17T23:15:27.749Z,78.41
2018-07-17T23:17:59.253Z,79.07
2018-07-17T23:20:30.499Z,79.77
2018-07-17T23:23:02.230Z,81.16
2018-07-17T23:25:34.491Z,81.37
2018-07-17T23:28:07.597Z,82.24
2018-07-17T23:34:50.701Z,82.07
2018-07-17T23:37:22.710Z,82.46
2018-07-17T23:39:54.566Z,82.55
2018-07-17T23:42:28.528Z,83.58
2018-07-17T23:45:00.724Z,82.56
2018-07-17T23:47:32.542Z,81.42
2018-07-17T23:50:04.593Z,79.70
2018-07-17T23:53:16.560Z,81.08
2018-07-17T23:55:48.563Z,85.41
2018-07-17T23:58:20.603Z,85.89
